sensor_id;sensor_type;location;lat;lon;timestamp;pressure;altitude;pressure_sealevel;temperature;humidity
18678;BME280;9469;51.114;13.914;2023-11-19T00:02:32;98836.72;;;3.93;100.00
18678;BME280;9469;51.114;13.914;2023-11-19T00:07:42;98822.66;;;3.77;100.00
18678;BME280;9469;51.114;13.914;2023-11-19T00:12:48;98817.53;;;3.60;100.00
18678;BME280;9469;51.114;13.914;2023-11-19T00:17:54;98781.59;;;3.39;100.00
18678;BME280;9469;51.114;13.914;2023-11-19T00:23:06;98750.53;;;3.31;100.00
18678;BME280;9469;51.114;13.914;2023-11-19T00:28:11;98775.84;;;3.42;100.00
18678;BME280;9469;51.114;13.914;2023-11-19T00:33:16;98754.75;;;3.32;100.00
18678;BME280;9469;51.114;13.914;2023-11-19T00:38:26;98761.19;;;3.51;100.00
18678;BME280;9469;51.114;13.914;2023-11-19T00:43:31;98754.78;;;3.37;100.00
18678;BME280;9469;51.114;13.914;2023-11-19T00:48:36;98755.88;;;3.41;100.00
18678;BME280;9469;51.114;13.914;2023-11-19T00:53:44;98740.09;;;3.41;100.00
18678;BME280;9469;51.114;13.914;2023-11-19T00:58:49;98729.91;;;3.50;100.00
18678;BME280;9469;51.114;13.914;2023-11-19T01:03:54;98729.06;;;3.44;100.00
18678;BME280;9469;51.114;13.914;2023-11-19T01:09:02;98704.66;;;3.54;100.00
18678;BME280;9469;51.114;13.914;2023-11-19T01:14:07;98680.72;;;3.50;100.00
18678;BME280;9469;51.114;13.914;2023-11-19T01:19:12;98675.31;;;3.25;100.00
18678;BME280;9469;51.114;13.914;2023-11-19T01:24:22;98653.22;;;3.26;100.00
18678;BME280;9469;51.114;13.914;2023-11-19T01:29:30;98659.53;;;3.30;100.00
18678;BME280;9469;51.114;13.914;2023-11-19T01:34:35;98650.09;;;3.29;100.00
18678;BME280;9469;51.114;13.914;2023-11-19T01:39:46;98629.13;;;3.44;100.00
18678;BME280;9469;51.114;13.914;2023-11-19T01:45:00;98628.88;;;3.41;100.00
18678;BME280;9469;51.114;13.914;2023-11-19T01:50:09;98623.63;;;3.46;100.00
18678;BME280;9469;51.114;13.914;2023-11-19T01:55:17;98582.09;;;3.48;100.00
18678;BME280;9469;51.114;13.914;2023-11-19T02:00:23;98586.28;;;3.49;100.00
18678;BME280;9469;51.114;13.914;2023-11-19T02:05:28;98571.88;;;3.67;100.00
18678;BME280;9469;51.114;13.914;2023-11-19T02:10:37;98547.16;;;3.62;100.00
18678;BME280;9469;51.114;13.914;2023-11-19T02:15:42;98530.09;;;3.75;100.00
18678;BME280;9469;51.114;13.914;2023-11-19T02:20:48;98512.75;;;3.84;100.00
18678;BME280;9469;51.114;13.914;2023-11-19T02:26:13;98505.63;;;3.85;100.00
18678;BME280;9469;51.114;13.914;2023-11-19T02:31:22;98489.34;;;3.93;100.00
18678;BME280;9469;51.114;13.914;2023-11-19T02:36:29;98481.47;;;3.98;100.00
18678;BME280;9469;51.114;13.914;2023-11-19T02:41:35;98470.41;;;4.06;100.00
18678;BME280;9469;51.114;13.914;2023-11-19T02:46:44;98455.13;;;4.08;100.00
18678;BME280;9469;51.114;13.914;2023-11-19T02:51:50;98455.66;;;4.25;100.00
18678;BME280;9469;51.114;13.914;2023-11-19T02:56:55;98442.50;;;4.20;100.00
18678;BME280;9469;51.114;13.914;2023-11-19T03:02:05;98426.16;;;4.23;100.00
18678;BME280;9469;51.114;13.914;2023-11-19T03:07:13;98397.72;;;4.30;100.00
18678;BME280;9469;51.114;13.914;2023-11-19T03:12:19;98400.06;;;4.36;100.00
18678;BME280;9469;51.114;13.914;2023-11-19T03:17:27;98377.16;;;4.32;100.00
18678;BME280;9469;51.114;13.914;2023-11-19T03:22:33;98376.38;;;4.36;100.00
18678;BME280;9469;51.114;13.914;2023-11-19T03:27:39;98363.72;;;4.44;100.00
18678;BME280;9469;51.114;13.914;2023-11-19T03:32:47;98351.53;;;4.58;100.00
18678;BME280;9469;51.114;13.914;2023-11-19T03:37:52;98350.03;;;4.42;100.00
18678;BME280;9469;51.114;13.914;2023-11-19T03:42:58;98352.88;;;4.55;100.00
18678;BME280;9469;51.114;13.914;2023-11-19T03:48:09;98334.72;;;4.54;100.00
18678;BME280;9469;51.114;13.914;2023-11-19T03:53:14;98323.59;;;4.67;100.00
18678;BME280;9469;51.114;13.914;2023-11-19T03:58:20;98301.25;;;4.54;100.00
18678;BME280;9469;51.114;13.914;2023-11-19T04:03:28;98298.06;;;4.62;100.00
18678;BME280;9469;51.114;13.914;2023-11-19T04:08:33;98285.00;;;4.37;100.00
18678;BME280;9469;51.114;13.914;2023-11-19T04:13:38;98279.22;;;4.30;100.00
18678;BME280;9469;51.114;13.914;2023-11-19T04:18:46;98266.56;;;4.32;100.00
18678;BME280;9469;51.114;13.914;2023-11-19T04:23:51;98265.00;;;4.36;100.00
18678;BME280;9469;51.114;13.914;2023-11-19T04:28:57;98261.06;;;4.39;100.00
18678;BME280;9469;51.114;13.914;2023-11-19T04:34:04;98260.56;;;4.21;100.00
18678;BME280;9469;51.114;13.914;2023-11-19T04:39:10;98246.81;;;4.34;100.00
18678;BME280;9469;51.114;13.914;2023-11-19T04:44:17;98240.00;;;4.28;100.00
18678;BME280;9469;51.114;13.914;2023-11-19T04:49:25;98230.59;;;4.17;100.00
18678;BME280;9469;51.114;13.914;2023-11-19T04:54:32;98226.06;;;4.23;100.00
18678;BME280;9469;51.114;13.914;2023-11-19T04:59:37;98202.38;;;4.28;100.00
18678;BME280;9469;51.114;13.914;2023-11-19T05:04:46;98194.47;;;4.28;100.00
18678;BME280;9469;51.114;13.914;2023-11-19T05:09:51;98185.22;;;4.35;100.00
18678;BME280;9469;51.114;13.914;2023-11-19T05:14:56;98186.63;;;4.18;100.00
18678;BME280;9469;51.114;13.914;2023-11-19T05:20:06;98189.22;;;4.23;100.00
18678;BME280;9469;51.114;13.914;2023-11-19T05:25:15;98181.88;;;4.20;100.00
18678;BME280;9469;51.114;13.914;2023-11-19T05:30:22;98176.09;;;4.18;100.00
18678;BME280;9469;51.114;13.914;2023-11-19T05:35:30;98175.03;;;4.14;100.00
18678;BME280;9469;51.114;13.914;2023-11-19T05:40:35;98142.19;;;4.11;100.00
18678;BME280;9469;51.114;13.914;2023-11-19T05:45:41;98150.78;;;4.27;100.00
18678;BME280;9469;51.114;13.914;2023-11-19T05:50:49;98143.72;;;4.17;100.00
18678;BME280;9469;51.114;13.914;2023-11-19T05:55:54;98138.66;;;4.26;100.00
18678;BME280;9469;51.114;13.914;2023-11-19T06:01:06;98129.25;;;4.15;100.00
18678;BME280;9469;51.114;13.914;2023-11-19T06:06:14;98121.34;;;4.15;100.00
18678;BME280;9469;51.114;13.914;2023-11-19T06:11:19;98120.53;;;4.24;100.00
18678;BME280;9469;51.114;13.914;2023-11-19T06:16:24;98111.84;;;4.24;100.00
18678;BME280;9469;51.114;13.914;2023-11-19T06:21:32;98116.50;;;4.32;100.00
18678;BME280;9469;51.114;13.914;2023-11-19T06:26:38;98094.41;;;4.33;100.00
18678;BME280;9469;51.114;13.914;2023-11-19T06:31:44;98079.88;;;4.41;100.00
18678;BME280;9469;51.114;13.914;2023-11-19T06:36:53;98074.34;;;4.37;100.00
18678;BME280;9469;51.114;13.914;2023-11-19T06:41:58;98068.75;;;4.44;100.00
18678;BME280;9469;51.114;13.914;2023-11-19T06:47:03;98078.97;;;4.50;100.00
18678;BME280;9469;51.114;13.914;2023-11-19T06:52:11;98078.44;;;4.53;100.00
18678;BME280;9469;51.114;13.914;2023-11-19T06:57:16;98082.09;;;4.57;100.00
18678;BME280;9469;51.114;13.914;2023-11-19T07:02:22;98066.78;;;4.59;100.00
18678;BME280;9469;51.114;13.914;2023-11-19T07:07:31;98068.34;;;4.65;100.00
18678;BME280;9469;51.114;13.914;2023-11-19T07:12:37;98059.13;;;4.63;100.00
18678;BME280;9469;51.114;13.914;2023-11-19T07:17:44;98066.25;;;4.62;100.00
18678;BME280;9469;51.114;13.914;2023-11-19T07:23:06;98082.72;;;4.78;100.00
18678;BME280;9469;51.114;13.914;2023-11-19T07:28:11;98087.59;;;4.89;100.00
18678;BME280;9469;51.114;13.914;2023-11-19T07:33:16;98095.28;;;5.15;100.00
18678;BME280;9469;51.114;13.914;2023-11-19T07:38:24;98108.75;;;5.13;100.00
18678;BME280;9469;51.114;13.914;2023-11-19T07:43:30;98084.59;;;5.25;100.00
18678;BME280;9469;51.114;13.914;2023-11-19T07:48:35;98087.78;;;5.27;100.00
18678;BME280;9469;51.114;13.914;2023-11-19T07:53:43;98077.44;;;5.54;100.00
18678;BME280;9469;51.114;13.914;2023-11-19T07:58:48;98074.13;;;5.67;100.00
18678;BME280;9469;51.114;13.914;2023-11-19T08:03:54;98066.50;;;5.84;100.00
18678;BME280;9469;51.114;13.914;2023-11-19T08:09:04;98070.44;;;5.87;100.00
18678;BME280;9469;51.114;13.914;2023-11-19T08:14:16;98076.16;;;6.12;100.00
18678;BME280;9469;51.114;13.914;2023-11-19T08:19:30;98084.47;;;6.38;100.00
18678;BME280;9469;51.114;13.914;2023-11-19T08:24:41;98059.09;;;6.42;100.00
18678;BME280;9469;51.114;13.914;2023-11-19T08:29:46;98068.28;;;6.44;100.00
18678;BME280;9469;51.114;13.914;2023-11-19T08:34:52;98066.47;;;6.59;100.00
18678;BME280;9469;51.114;13.914;2023-11-19T08:40:00;98051.09;;;6.61;100.00
18678;BME280;9469;51.114;13.914;2023-11-19T08:45:07;98054.22;;;7.22;100.00
18678;BME280;9469;51.114;13.914;2023-11-19T08:50:14;98042.38;;;7.33;100.00
18678;BME280;9469;51.114;13.914;2023-11-19T08:55:22;98064.63;;;7.46;100.00
18678;BME280;9469;51.114;13.914;2023-11-19T09:00:28;98066.09;;;7.65;100.00
18678;BME280;9469;51.114;13.914;2023-11-19T09:05:34;98077.81;;;7.86;100.00
18678;BME280;9469;51.114;13.914;2023-11-19T09:10:43;98081.47;;;8.13;100.00
18678;BME280;9469;51.114;13.914;2023-11-19T09:15:48;98081.16;;;8.28;100.00
18678;BME280;9469;51.114;13.914;2023-11-19T09:20:53;98081.78;;;8.47;100.00
18678;BME280;9469;51.114;13.914;2023-11-19T09:26:01;98072.63;;;8.53;100.00
18678;BME280;9469;51.114;13.914;2023-11-19T09:31:13;98077.63;;;8.77;100.00
18678;BME280;9469;51.114;13.914;2023-11-19T09:36:20;98070.38;;;8.91;100.00
18678;BME280;9469;51.114;13.914;2023-11-19T09:41:29;98058.56;;;8.97;100.00
18678;BME280;9469;51.114;13.914;2023-11-19T09:46:35;98055.13;;;8.96;100.00
18678;BME280;9469;51.114;13.914;2023-11-19T09:51:44;98055.94;;;9.05;100.00
18678;BME280;9469;51.114;13.914;2023-11-19T09:56:52;98059.41;;;9.14;100.00
18678;BME280;9469;51.114;13.914;2023-11-19T10:02:02;98046.34;;;9.26;100.00
18678;BME280;9469;51.114;13.914;2023-11-19T10:07:11;98049.19;;;9.38;100.00
18678;BME280;9469;51.114;13.914;2023-11-19T10:12:19;98044.28;;;9.71;100.00
18678;BME280;9469;51.114;13.914;2023-11-19T10:17:28;98031.69;;;10.11;100.00
18678;BME280;9469;51.114;13.914;2023-11-19T10:22:37;98019.75;;;10.68;100.00
18678;BME280;9469;51.114;13.914;2023-11-19T10:27:44;98031.09;;;10.95;100.00
18678;BME280;9469;51.114;13.914;2023-11-19T10:33:06;98045.44;;;10.47;100.00
18678;BME280;9469;51.114;13.914;2023-11-19T10:38:14;98037.47;;;10.39;100.00
18678;BME280;9469;51.114;13.914;2023-11-19T10:43:23;98031.84;;;10.40;100.00
18678;BME280;9469;51.114;13.914;2023-11-19T10:48:28;98023.84;;;10.57;100.00
18678;BME280;9469;51.114;13.914;2023-11-19T10:53:36;98021.94;;;10.66;100.00
18678;BME280;9469;51.114;13.914;2023-11-19T10:58:45;98023.03;;;10.74;100.00
18678;BME280;9469;51.114;13.914;2023-11-19T11:03:51;98037.56;;;10.76;100.00
18678;BME280;9469;51.114;13.914;2023-11-19T11:08:59;98042.41;;;10.83;100.00
18678;BME280;9469;51.114;13.914;2023-11-19T11:14:09;98028.78;;;10.85;100.00
18678;BME280;9469;51.114;13.914;2023-11-19T11:19:17;98040.00;;;11.07;100.00
18678;BME280;9469;51.114;13.914;2023-11-19T11:30:09;98034.69;;;10.99;100.00
18678;BME280;9469;51.114;13.914;2023-11-19T11:35:27;98036.13;;;10.96;100.00
18678;BME280;9469;51.114;13.914;2023-11-19T11:40:36;98040.69;;;10.87;100.00
18678;BME280;9469;51.114;13.914;2023-11-19T11:45:45;98039.72;;;10.92;100.00
18678;BME280;9469;51.114;13.914;2023-11-19T11:50:55;98028.75;;;11.31;100.00
18678;BME280;9469;51.114;13.914;2023-11-19T11:56:01;98024.59;;;11.50;100.00
18678;BME280;9469;51.114;13.914;2023-11-19T12:01:15;98044.81;;;11.81;100.00
18678;BME280;9469;51.114;13.914;2023-11-19T12:06:22;98036.06;;;12.54;100.00
18678;BME280;9469;51.114;13.914;2023-11-19T12:11:28;98037.81;;;12.83;100.00
18678;BME280;9469;51.114;13.914;2023-11-19T12:16:37;98026.09;;;12.10;100.00
18678;BME280;9469;51.114;13.914;2023-11-19T12:21:42;98019.41;;;11.83;100.00
18678;BME280;9469;51.114;13.914;2023-11-19T12:26:47;98008.56;;;11.88;100.00
18678;BME280;9469;51.114;13.914;2023-11-19T12:31:58;97996.19;;;11.84;100.00
18678;BME280;9469;51.114;13.914;2023-11-19T12:37:08;97997.91;;;11.88;100.00
18678;BME280;9469;51.114;13.914;2023-11-19T12:42:13;98004.00;;;11.68;100.00
18678;BME280;9469;51.114;13.914;2023-11-19T12:47:21;98012.53;;;11.53;100.00
18678;BME280;9469;51.114;13.914;2023-11-19T12:52:26;98018.34;;;10.71;100.00
18678;BME280;9469;51.114;13.914;2023-11-19T12:57:36;98011.22;;;10.29;100.00
18678;BME280;9469;51.114;13.914;2023-11-19T13:02:48;98019.50;;;10.27;100.00
18678;BME280;9469;51.114;13.914;2023-11-19T13:07:59;98011.63;;;10.56;100.00
18678;BME280;9469;51.114;13.914;2023-11-19T13:13:06;98007.28;;;10.09;100.00
18678;BME280;9469;51.114;13.914;2023-11-19T13:18:16;97964.19;;;10.12;100.00
18678;BME280;9469;51.114;13.914;2023-11-19T13:23:21;97961.94;;;10.48;100.00
18678;BME280;9469;51.114;13.914;2023-11-19T13:28:27;97971.06;;;10.76;100.00
18678;BME280;9469;51.114;13.914;2023-11-19T13:33:34;97958.69;;;11.18;100.00
18678;BME280;9469;51.114;13.914;2023-11-19T13:38:40;97976.84;;;11.16;100.00
18678;BME280;9469;51.114;13.914;2023-11-19T13:43:46;97962.63;;;10.74;100.00
18678;BME280;9469;51.114;13.914;2023-11-19T13:48:54;97966.47;;;10.86;100.00
18678;BME280;9469;51.114;13.914;2023-11-19T13:53:59;97961.75;;;11.00;100.00
18678;BME280;9469;51.114;13.914;2023-11-19T13:59:04;97966.44;;;11.03;100.00
18678;BME280;9469;51.114;13.914;2023-11-19T14:04:15;97977.13;;;11.23;100.00
18678;BME280;9469;51.114;13.914;2023-11-19T14:09:20;97977.25;;;11.27;100.00
18678;BME280;9469;51.114;13.914;2023-11-19T14:14:26;97983.25;;;11.24;100.00
18678;BME280;9469;51.114;13.914;2023-11-19T14:19:37;97990.22;;;11.37;100.00
18678;BME280;9469;51.114;13.914;2023-11-19T14:24:45;97987.31;;;11.50;100.00
18678;BME280;9469;51.114;13.914;2023-11-19T14:29:50;97992.69;;;11.42;100.00
18678;BME280;9469;51.114;13.914;2023-11-19T14:34:58;97980.59;;;11.44;100.00
18678;BME280;9469;51.114;13.914;2023-11-19T14:40:08;97989.25;;;11.41;100.00
18678;BME280;9469;51.114;13.914;2023-11-19T14:45:14;97995.91;;;11.27;100.00
18678;BME280;9469;51.114;13.914;2023-11-19T14:50:25;97992.22;;;11.40;100.00
18678;BME280;9469;51.114;13.914;2023-11-19T14:55:30;97992.09;;;11.36;100.00
18678;BME280;9469;51.114;13.914;2023-11-19T15:00:35;97989.53;;;11.19;100.00
18678;BME280;9469;51.114;13.914;2023-11-19T15:05:43;97981.94;;;11.30;100.00
18678;BME280;9469;51.114;13.914;2023-11-19T15:10:48;97975.16;;;11.12;100.00
18678;BME280;9469;51.114;13.914;2023-11-19T15:15:53;97985.00;;;11.11;100.00
18678;BME280;9469;51.114;13.914;2023-11-19T15:21:01;97988.53;;;10.95;100.00
18678;BME280;9469;51.114;13.914;2023-11-19T15:26:06;97987.13;;;10.89;100.00
18678;BME280;9469;51.114;13.914;2023-11-19T15:31:12;97989.97;;;10.83;100.00
18678;BME280;9469;51.114;13.914;2023-11-19T15:36:21;97991.38;;;10.81;100.00
18678;BME280;9469;51.114;13.914;2023-11-19T15:41:26;97985.59;;;10.79;100.00
18678;BME280;9469;51.114;13.914;2023-11-19T15:46:32;97993.66;;;10.62;100.00
18678;BME280;9469;51.114;13.914;2023-11-19T15:51:40;97998.63;;;10.63;100.00
18678;BME280;9469;51.114;13.914;2023-11-19T15:56:47;98002.56;;;10.57;100.00
18678;BME280;9469;51.114;13.914;2023-11-19T16:01:52;97996.13;;;10.67;100.00
18678;BME280;9469;51.114;13.914;2023-11-19T16:07:00;98007.13;;;10.48;100.00
18678;BME280;9469;51.114;13.914;2023-11-19T16:12:06;98009.44;;;10.58;100.00
18678;BME280;9469;51.114;13.914;2023-11-19T16:17:11;98022.16;;;10.44;100.00
18678;BME280;9469;51.114;13.914;2023-11-19T16:22:19;98017.31;;;10.46;100.00
18678;BME280;9469;51.114;13.914;2023-11-19T16:27:25;98016.81;;;10.36;100.00
18678;BME280;9469;51.114;13.914;2023-11-19T16:32:30;98012.28;;;10.36;100.00
18678;BME280;9469;51.114;13.914;2023-11-19T16:37:38;98022.78;;;10.33;100.00
18678;BME280;9469;51.114;13.914;2023-11-19T16:42:44;98018.25;;;10.33;100.00
18678;BME280;9469;51.114;13.914;2023-11-19T16:47:53;98019.97;;;10.29;100.00
18678;BME280;9469;51.114;13.914;2023-11-19T16:53:01;98021.50;;;10.47;100.00
18678;BME280;9469;51.114;13.914;2023-11-19T16:58:06;98018.22;;;10.50;100.00
18678;BME280;9469;51.114;13.914;2023-11-19T17:03:12;98019.03;;;10.42;100.00
18678;BME280;9469;51.114;13.914;2023-11-19T17:08:19;98023.09;;;10.40;100.00
18678;BME280;9469;51.114;13.914;2023-11-19T17:13:26;98020.25;;;10.45;100.00
18678;BME280;9469;51.114;13.914;2023-11-19T17:18:31;98027.16;;;10.37;100.00
18678;BME280;9469;51.114;13.914;2023-11-19T17:23:39;98024.97;;;10.39;100.00
18678;BME280;9469;51.114;13.914;2023-11-19T17:28:44;98021.19;;;10.40;100.00
18678;BME280;9469;51.114;13.914;2023-11-19T17:33:49;98021.84;;;10.37;100.00
18678;BME280;9469;51.114;13.914;2023-11-19T17:38:57;98029.81;;;10.37;100.00
18678;BME280;9469;51.114;13.914;2023-11-19T17:44:06;98013.69;;;10.34;100.00
18678;BME280;9469;51.114;13.914;2023-11-19T17:49:11;98022.91;;;10.53;100.00
18678;BME280;9469;51.114;13.914;2023-11-19T17:54:19;98021.84;;;10.37;100.00
18678;BME280;9469;51.114;13.914;2023-11-19T17:59:24;98021.50;;;10.47;100.00
18678;BME280;9469;51.114;13.914;2023-11-19T18:04:29;98023.38;;;10.38;100.00
18678;BME280;9469;51.114;13.914;2023-11-19T18:09:38;98031.22;;;10.43;100.00
18678;BME280;9469;51.114;13.914;2023-11-19T18:14:44;98034.66;;;10.44;100.00
18678;BME280;9469;51.114;13.914;2023-11-19T18:19:52;98040.13;;;10.47;100.00
18678;BME280;9469;51.114;13.914;2023-11-19T18:25:03;98041.22;;;10.55;100.00
18678;BME280;9469;51.114;13.914;2023-11-19T18:30:13;98036.03;;;10.58;100.00
18678;BME280;9469;51.114;13.914;2023-11-19T18:35:24;98036.69;;;10.38;100.00
18678;BME280;9469;51.114;13.914;2023-11-19T18:40:31;98037.91;;;10.49;100.00
18678;BME280;9469;51.114;13.914;2023-11-19T18:45:36;98039.66;;;10.45;100.00
18678;BME280;9469;51.114;13.914;2023-11-19T18:50:42;98047.00;;;10.48;100.00
18678;BME280;9469;51.114;13.914;2023-11-19T18:55:53;98041.53;;;10.45;100.00
18678;BME280;9469;51.114;13.914;2023-11-19T19:00:58;98051.06;;;10.46;100.00
18678;BME280;9469;51.114;13.914;2023-11-19T19:06:06;98056.41;;;10.37;100.00
18678;BME280;9469;51.114;13.914;2023-11-19T19:11:14;98056.41;;;10.29;100.00
18678;BME280;9469;51.114;13.914;2023-11-19T19:16:20;98046.41;;;10.26;100.00
18678;BME280;9469;51.114;13.914;2023-11-19T19:21:30;98044.53;;;10.26;100.00
18678;BME280;9469;51.114;13.914;2023-11-19T19:26:39;98054.19;;;10.14;100.00
18678;BME280;9469;51.114;13.914;2023-11-19T19:31:44;98045.16;;;10.23;100.00
18678;BME280;9469;51.114;13.914;2023-11-19T19:36:52;98050.78;;;10.30;100.00
18678;BME280;9469;51.114;13.914;2023-11-19T19:42:05;98056.56;;;10.32;100.00
18678;BME280;9469;51.114;13.914;2023-11-19T19:47:14;98061.25;;;10.35;100.00
18678;BME280;9469;51.114;13.914;2023-11-19T19:52:20;98060.31;;;10.31;100.00
18678;BME280;9469;51.114;13.914;2023-11-19T19:57:44;98060.91;;;10.45;100.00
18678;BME280;9469;51.114;13.914;2023-11-19T20:02:55;98062.47;;;10.55;100.00
18678;BME280;9469;51.114;13.914;2023-11-19T20:08:00;98061.69;;;10.54;100.00
18678;BME280;9469;51.114;13.914;2023-11-19T20:13:09;98067.66;;;10.51;100.00
18678;BME280;9469;51.114;13.914;2023-11-19T20:18:21;98066.09;;;10.50;100.00
18678;BME280;9469;51.114;13.914;2023-11-19T20:23:30;98075.63;;;10.60;100.00
18678;BME280;9469;51.114;13.914;2023-11-19T20:28:38;98062.31;;;10.68;100.00
18678;BME280;9469;51.114;13.914;2023-11-19T20:33:43;98062.81;;;10.53;100.00
18678;BME280;9469;51.114;13.914;2023-11-19T20:38:50;98063.88;;;10.61;100.00
18678;BME280;9469;51.114;13.914;2023-11-19T20:43:58;98068.41;;;10.52;100.00
18678;BME280;9469;51.114;13.914;2023-11-19T20:49:03;98057.94;;;10.55;100.00
18678;BME280;9469;51.114;13.914;2023-11-19T20:54:10;98062.47;;;10.63;100.00
18678;BME280;9469;51.114;13.914;2023-11-19T20:59:18;98054.03;;;10.53;100.00
18678;BME280;9469;51.114;13.914;2023-11-19T21:04:23;98053.88;;;10.58;100.00
18678;BME280;9469;51.114;13.914;2023-11-19T21:09:29;98049.97;;;10.55;100.00
18678;BME280;9469;51.114;13.914;2023-11-19T21:14:37;98063.13;;;10.60;100.00
18678;BME280;9469;51.114;13.914;2023-11-19T21:19:43;98062.03;;;10.44;100.00
18678;BME280;9469;51.114;13.914;2023-11-19T21:24:49;98050.31;;;10.37;100.00
18678;BME280;9469;51.114;13.914;2023-11-19T21:29:58;98052.16;;;10.36;100.00
18678;BME280;9469;51.114;13.914;2023-11-19T21:35:07;98040.47;;;10.29;100.00
18678;BME280;9469;51.114;13.914;2023-11-19T21:40:13;98050.16;;;10.33;100.00
18678;BME280;9469;51.114;13.914;2023-11-19T21:45:23;98037.03;;;10.28;100.00
18678;BME280;9469;51.114;13.914;2023-11-19T21:50:28;98052.19;;;10.19;100.00
18678;BME280;9469;51.114;13.914;2023-11-19T21:55:34;98050.44;;;10.40;100.00
18678;BME280;9469;51.114;13.914;2023-11-19T22:00:44;98043.75;;;10.26;100.00
18678;BME280;9469;51.114;13.914;2023-11-19T22:05:50;98038.56;;;10.29;100.00
18678;BME280;9469;51.114;13.914;2023-11-19T22:10:55;98043.25;;;10.32;100.00
18678;BME280;9469;51.114;13.914;2023-11-19T22:16:03;98039.22;;;10.26;100.00
18678;BME280;9469;51.114;13.914;2023-11-19T22:21:09;98043.25;;;10.41;100.00
18678;BME280;9469;51.114;13.914;2023-11-19T22:26:14;98048.44;;;10.37;100.00
18678;BME280;9469;51.114;13.914;2023-11-19T22:31:23;98040.47;;;10.29;100.00
18678;BME280;9469;51.114;13.914;2023-11-19T22:36:29;98035.91;;;10.21;100.00
18678;BME280;9469;51.114;13.914;2023-11-19T22:41:35;98045.16;;;10.15;100.00
18678;BME280;9469;51.114;13.914;2023-11-19T22:46:43;98039.50;;;9.99;100.00
18678;BME280;9469;51.114;13.914;2023-11-19T22:51:49;98034.97;;;10.08;100.00
18678;BME280;9469;51.114;13.914;2023-11-19T22:56:54;98022.13;;;10.10;100.00
18678;BME280;9469;51.114;13.914;2023-11-19T23:02:01;98027.59;;;10.05;100.00
18678;BME280;9469;51.114;13.914;2023-11-19T23:07:08;98024.81;;;10.10;100.00
18678;BME280;9469;51.114;13.914;2023-11-19T23:12:13;98025.59;;;10.10;100.00
18678;BME280;9469;51.114;13.914;2023-11-19T23:17:21;98031.53;;;10.16;100.00
18678;BME280;9469;51.114;13.914;2023-11-19T23:22:28;98033.13;;;10.17;100.00
18678;BME280;9469;51.114;13.914;2023-11-19T23:27:34;98024.69;;;10.15;100.00
18678;BME280;9469;51.114;13.914;2023-11-19T23:32:42;98024.97;;;10.14;100.00
18678;BME280;9469;51.114;13.914;2023-11-19T23:37:47;98016.69;;;10.24;100.00
18678;BME280;9469;51.114;13.914;2023-11-19T23:42:52;98015.28;;;10.26;100.00
18678;BME280;9469;51.114;13.914;2023-11-19T23:48:01;98023.13;;;10.31;100.00
18678;BME280;9469;51.114;13.914;2023-11-19T23:53:06;98018.88;;;10.30;100.00
18678;BME280;9469;51.114;13.914;2023-11-19T23:58:13;98012.94;;;10.25;100.00
